createdAt,value
2022-09-28T00:01:28.612Z,12.86
2022-09-28T00:05:34.812Z,12.87
2022-09-28T00:09:38.942Z,12.85
2022-09-28T00:13:43.047Z,12.85
2022-09-28T00:17:46.277Z,12.83
2022-09-28T00:21:50.902Z,12.81
2022-09-28T00:25:54.274Z,12.77
2022-09-28T00:29:57.203Z,12.73
2022-09-28T00:34:01.446Z,12.70
2022-09-28T00:38:06.098Z,12.61
2022-09-28T00:42:16.384Z,12.51
2022-09-28T00:46:23.188Z,12.37
2022-09-28T00:50:30.527Z,12.22
2022-09-28T00:54:36.400Z,12.10
2022-09-28T00:58:43.174Z,11.99
2022-09-28T01:02:48.266Z,12.01
2022-09-28T01:06:52.551Z,12.03
2022-09-28T01:10:57.603Z,12.10
2022-09-28T01:15:02.134Z,12.17
2022-09-28T01:19:19.646Z,12.26
2022-09-28T01:23:47.284Z,12.23
2022-09-28T01:27:55.974Z,12.46
2022-09-28T01:32:07.527Z,12.51
2022-09-28T01:36:15.756Z,12.55
2022-09-28T01:40:20.355Z,12.49
2022-09-28T01:44:27.814Z,12.46
2022-09-28T01:48:37.212Z,12.38
2022-09-28T01:52:47.284Z,12.29
2022-09-28T01:56:56.209Z,12.23
2022-09-28T02:01:05.779Z,12.12
2022-09-28T02:05:15.649Z,12.10
2022-09-28T02:09:22.815Z,12.03
2022-09-28T02:13:31.340Z,11.91
2022-09-28T02:17:36.594Z,11.79
2022-09-28T02:21:45.428Z,11.67
2022-09-28T02:25:53.161Z,11.52
2022-09-28T02:29:56.605Z,11.39
2022-09-28T02:34:01.451Z,11.27
2022-09-28T02:38:05.162Z,11.29
2022-09-28T02:42:18.202Z,11.31
2022-09-28T02:46:31.163Z,11.33
2022-09-28T02:50:40.444Z,11.36
2022-09-28T02:55:15.058Z,11.37
2022-09-28T02:59:33.258Z,11.43
2022-09-28T03:03:47.056Z,11.50
2022-09-28T03:07:59.919Z,11.57
2022-09-28T03:12:09.425Z,11.57
2022-09-28T03:16:14.299Z,11.67
2022-09-28T03:20:17.975Z,11.68
2022-09-28T03:24:23.384Z,11.76
2022-09-28T03:28:26.573Z,11.75
2022-09-28T03:32:30.203Z,11.71
2022-09-28T03:36:33.877Z,11.62
2022-09-28T03:40:38.393Z,11.58
2022-09-28T03:44:41.915Z,11.55
2022-09-28T03:48:45.209Z,11.53
2022-09-28T03:52:48.967Z,11.46
2022-09-28T03:56:53.304Z,11.48
2022-09-28T04:00:56.712Z,11.37
2022-09-28T04:04:59.757Z,11.23
2022-09-28T04:09:03.207Z,11.14
2022-09-28T04:13:08.039Z,11.07
2022-09-28T04:17:11.616Z,10.97
2022-09-28T04:21:16.824Z,10.86
2022-09-28T04:25:19.899Z,10.76
2022-09-28T04:29:25.206Z,10.68
2022-09-28T04:33:28.203Z,10.59
2022-09-28T04:37:31.858Z,10.52
2022-09-28T04:41:34.927Z,10.45
2022-09-28T04:45:39.844Z,10.39
2022-09-28T04:49:42.955Z,10.36
2022-09-28T04:53:46.317Z,10.34
2022-09-28T04:57:49.573Z,10.35
2022-09-28T05:01:55.123Z,10.38
2022-09-28T05:05:58.137Z,10.41
2022-09-28T05:10:02.089Z,10.47
2022-09-28T05:14:05.965Z,10.53
2022-09-28T05:18:10.992Z,10.59
2022-09-28T05:22:14.975Z,10.66
2022-09-28T05:26:18.837Z,10.73
2022-09-28T05:30:22.250Z,10.83
2022-09-28T05:34:27.315Z,10.95
2022-09-28T05:38:30.980Z,11.10
2022-09-28T05:42:34.662Z,11.26
2022-09-28T05:46:37.666Z,11.42
2022-09-28T05:50:42.493Z,11.60
2022-09-28T05:54:45.460Z,11.75
2022-09-28T05:58:48.901Z,11.75
2022-09-28T06:03:00.178Z,11.98
2022-09-28T06:07:05.057Z,12.02
2022-09-28T06:11:08.095Z,12.04
2022-09-28T06:15:12.118Z,12.10
2022-09-28T06:19:15.206Z,12.15
2022-09-28T06:23:19.972Z,12.31
2022-09-28T06:27:22.993Z,12.42
2022-09-28T06:31:26.463Z,12.52
2022-09-28T06:35:32.368Z,12.55
2022-09-28T06:39:37.000Z,12.68
2022-09-28T06:43:40.913Z,12.80
2022-09-28T06:47:43.894Z,12.92
2022-09-28T06:51:47.970Z,13.13
2022-09-28T06:55:52.531Z,13.49
2022-09-28T06:59:55.966Z,14.04
2022-09-28T07:03:59.027Z,14.75
2022-09-28T07:08:03.166Z,15.59
2022-09-28T07:12:10.300Z,16.39
2022-09-28T07:16:14.039Z,17.07
2022-09-28T07:20:19.340Z,17.53
2022-09-28T07:24:23.534Z,17.79
2022-09-28T07:28:28.388Z,17.98
2022-09-28T07:32:32.712Z,18.19
2022-09-28T07:36:36.962Z,18.41
2022-09-28T07:40:58.010Z,18.57
2022-09-28T07:45:03.278Z,18.81
2022-09-28T07:49:10.025Z,19.08
2022-09-28T07:53:15.520Z,19.36
2022-09-28T07:57:18.769Z,19.70
2022-09-28T08:01:23.669Z,19.99
2022-09-28T08:05:27.644Z,20.17
2022-09-28T08:09:30.839Z,20.24
2022-09-28T08:13:34.189Z,20.27
2022-09-28T08:17:39.381Z,20.28
2022-09-28T08:21:48.415Z,20.30
2022-09-28T08:25:54.652Z,20.37
2022-09-28T08:29:58.228Z,20.53
2022-09-28T08:34:04.806Z,20.72
2022-09-28T08:38:08.892Z,20.88
2022-09-28T08:42:32.081Z,20.95
2022-09-28T08:46:40.757Z,20.93
2022-09-28T08:50:52.708Z,20.92
2022-09-28T08:55:04.258Z,20.89
2022-09-28T08:59:14.148Z,20.89
2022-09-28T09:03:22.227Z,20.85
2022-09-28T09:07:48.758Z,20.83
2022-09-28T09:12:02.511Z,20.87
2022-09-28T09:16:13.191Z,20.96
2022-09-28T09:20:22.305Z,21.05
2022-09-28T09:24:40.277Z,21.23
2022-09-28T09:29:04.110Z,21.43
2022-09-28T09:33:36.376Z,21.67
2022-09-28T09:38:03.582Z,21.89
2022-09-28T09:42:21.299Z,22.11
2022-09-28T09:46:35.229Z,22.40
2022-09-28T09:50:46.024Z,22.69
2022-09-28T09:54:56.227Z,22.77
2022-09-28T09:59:08.534Z,22.72
2022-09-28T10:03:21.244Z,22.65
2022-09-28T10:07:26.389Z,22.64
2022-09-28T10:11:33.169Z,22.56
2022-09-28T10:15:38.218Z,22.51
2022-09-28T10:19:41.294Z,22.49
2022-09-28T10:23:46.668Z,22.50
2022-09-28T10:27:52.825Z,22.46
2022-09-28T10:31:57.770Z,22.39
2022-09-28T10:36:01.671Z,22.22
2022-09-28T10:40:05.769Z,22.01
2022-09-28T10:44:19.314Z,21.80
2022-09-28T10:48:24.505Z,21.57
2022-09-28T10:52:46.690Z,21.43
2022-09-28T10:56:51.271Z,21.39
2022-09-28T11:01:01.420Z,21.51
2022-09-28T11:05:09.260Z,21.81
2022-09-28T11:09:29.838Z,22.14
2022-09-28T11:13:44.578Z,22.47
2022-09-28T11:17:47.702Z,22.70
2022-09-28T11:21:54.045Z,22.84
2022-09-28T11:25:59.917Z,22.97
2022-09-28T11:30:03.469Z,23.05
2022-09-28T11:34:18.040Z,23.16
2022-09-28T11:38:35.516Z,23.22
2022-09-28T11:42:50.993Z,23.19
2022-09-28T11:47:06.746Z,23.08
2022-09-28T11:51:16.697Z,23.02
2022-09-28T11:55:30.947Z,23.06
2022-09-28T11:59:37.999Z,23.16
2022-09-28T12:03:44.083Z,23.17
2022-09-28T12:07:52.231Z,23.11
2022-09-28T12:12:03.719Z,22.97
2022-09-28T12:16:32.662Z,22.79
2022-09-28T12:20:40.124Z,22.59
2022-09-28T12:24:47.670Z,22.37
2022-09-28T12:28:58.119Z,22.18
2022-09-28T12:33:05.901Z,22.10
2022-09-28T12:37:23.830Z,22.07
2022-09-28T12:41:43.694Z,22.07
2022-09-28T12:46:12.038Z,22.08
2022-09-28T12:50:41.620Z,22.17
2022-09-28T12:59:11.672Z,22.21
2022-09-28T13:03:51.718Z,22.09
2022-09-28T13:08:05.182Z,22.07
2022-09-28T13:12:27.695Z,22.11
2022-09-28T13:16:37.093Z,21.96
2022-09-28T13:20:52.736Z,21.98
2022-09-28T13:25:01.397Z,21.88
2022-09-28T13:29:11.346Z,21.68
2022-09-28T13:33:22.361Z,21.45
2022-09-28T13:37:27.120Z,21.19
2022-09-28T13:41:33.622Z,21.01
2022-09-28T13:45:57.221Z,20.90
2022-09-28T13:50:14.527Z,20.73
2022-09-28T13:54:48.801Z,20.54
2022-09-28T13:58:56.874Z,20.35
2022-09-28T14:03:06.465Z,20.15
2022-09-28T14:07:13.084Z,19.88
2022-09-28T14:11:43.635Z,19.63
2022-09-28T14:15:47.089Z,19.42
2022-09-28T14:19:53.710Z,19.22
2022-09-28T14:24:15.423Z,19.02
2022-09-28T14:28:38.492Z,18.88
2022-09-28T14:32:44.094Z,18.74
2022-09-28T14:37:08.388Z,18.50
2022-09-28T14:41:26.923Z,18.21
2022-09-28T14:45:39.014Z,18.03
2022-09-28T14:49:49.165Z,17.84
2022-09-28T14:53:52.792Z,17.64
2022-09-28T14:57:59.012Z,17.54
2022-09-28T15:02:19.469Z,17.47
2022-09-28T15:06:24.958Z,17.43
2022-09-28T15:10:33.650Z,17.37
2022-09-28T15:14:49.773Z,17.35
2022-09-28T15:19:20.093Z,17.26
2022-09-28T15:23:36.280Z,17.19
2022-09-28T15:27:41.389Z,17.06
2022-09-28T15:31:45.515Z,16.93
2022-09-28T15:35:59.147Z,16.82
2022-09-28T15:40:06.207Z,16.68
2022-09-28T15:44:27.342Z,16.56
2022-09-28T15:48:34.304Z,16.40
2022-09-28T15:52:43.568Z,16.30
2022-09-28T15:56:55.576Z,16.17
2022-09-28T16:01:26.839Z,16.00
2022-09-28T16:05:50.342Z,15.87
2022-09-28T16:10:05.443Z,15.76
2022-09-28T16:14:19.460Z,15.63
2022-09-28T16:18:25.488Z,15.55
2022-09-28T16:22:29.065Z,15.48
2022-09-28T16:26:36.853Z,15.42
2022-09-28T16:31:04.528Z,15.36
2022-09-28T16:35:20.004Z,15.32
2022-09-28T16:39:22.991Z,15.20
2022-09-28T16:43:31.010Z,15.21
2022-09-28T16:47:35.159Z,15.10
2022-09-28T16:51:40.661Z,15.10
2022-09-28T16:55:43.746Z,15.04
2022-09-28T16:59:48.205Z,15.00
2022-09-28T17:03:51.705Z,14.97
2022-09-28T17:08:02.134Z,14.94
2022-09-28T17:12:13.545Z,14.91
2022-09-28T17:16:28.151Z,14.88
2022-09-28T17:20:46.468Z,14.82
2022-09-28T17:24:49.519Z,14.79
2022-09-28T17:28:53.161Z,14.77
2022-09-28T17:33:00.588Z,14.74
2022-09-28T17:37:03.753Z,14.72
2022-09-28T17:41:07.442Z,14.69
2022-09-28T17:45:11.385Z,14.62
2022-09-28T17:49:17.234Z,14.63
2022-09-28T17:53:20.210Z,14.62
2022-09-28T17:57:23.891Z,14.59
2022-09-28T18:01:31.510Z,14.55
2022-09-28T18:05:38.580Z,14.51
2022-09-28T18:09:42.180Z,14.51
2022-09-28T18:13:47.934Z,14.45
2022-09-28T18:17:50.988Z,14.42
2022-09-28T18:21:56.941Z,14.40
2022-09-28T18:26:00.400Z,14.36
2022-09-28T18:30:04.144Z,14.32
2022-09-28T18:34:07.855Z,14.30
2022-09-28T18:38:13.244Z,14.25
2022-09-28T18:42:16.477Z,14.22
2022-09-28T18:46:20.784Z,14.19
2022-09-28T18:50:24.307Z,14.16
2022-09-28T18:54:29.664Z,14.14
2022-09-28T18:58:36.253Z,14.09
2022-09-28T19:02:40.023Z,14.07
2022-09-28T19:06:45.103Z,14.03
2022-09-28T19:10:50.230Z,14.01
2022-09-28T19:14:53.261Z,13.97
2022-09-28T19:18:58.713Z,13.96
2022-09-28T19:23:02.950Z,13.94
2022-09-28T19:27:07.674Z,13.93
2022-09-28T19:31:12.908Z,13.92
2022-09-28T19:35:17.542Z,13.90
2022-09-28T19:39:21.259Z,13.86
2022-09-28T19:43:32.251Z,13.87
2022-09-28T19:47:36.419Z,13.84
2022-09-28T19:51:51.537Z,13.81
2022-09-28T19:56:05.915Z,13.80
2022-09-28T20:00:12.184Z,13.79
2022-09-28T20:04:16.985Z,13.78
2022-09-28T20:08:21.055Z,13.77
2022-09-28T20:12:24.258Z,13.77
2022-09-28T20:16:30.813Z,13.76
2022-09-28T20:20:34.787Z,13.74
2022-09-28T20:24:37.927Z,13.74
2022-09-28T20:28:41.480Z,13.72
2022-09-28T20:32:49.565Z,13.73
2022-09-28T20:36:55.434Z,13.72
2022-09-28T20:41:01.648Z,13.72
2022-09-28T20:45:05.628Z,13.71
2022-09-28T20:49:10.339Z,13.69
2022-09-28T20:53:13.809Z,13.67
2022-09-28T20:57:20.779Z,13.65
2022-09-28T21:01:25.309Z,13.64
2022-09-28T21:05:30.750Z,13.64
2022-09-28T21:09:34.295Z,13.62
2022-09-28T21:13:37.427Z,13.62
2022-09-28T21:17:40.942Z,13.59
2022-09-28T21:21:45.738Z,13.57
2022-09-28T21:25:48.835Z,13.55
2022-09-28T21:29:52.227Z,13.52
2022-09-28T21:33:55.588Z,13.49
2022-09-28T21:38:00.024Z,13.48
2022-09-28T21:42:03.575Z,13.46
2022-09-28T21:46:07.643Z,13.45
2022-09-28T21:50:10.893Z,13.42
2022-09-28T21:54:15.800Z,13.43
2022-09-28T21:58:19.346Z,13.40
2022-09-28T22:02:23.325Z,13.39
2022-09-28T22:06:29.193Z,13.38
2022-09-28T22:10:34.197Z,13.36
2022-09-28T22:14:37.287Z,13.33
2022-09-28T22:18:42.132Z,13.32
2022-09-28T22:22:50.439Z,13.32
2022-09-28T22:26:54.758Z,13.31
2022-09-28T22:30:58.915Z,13.28
2022-09-28T22:35:02.331Z,13.25
2022-09-28T22:39:05.866Z,13.21
2022-09-28T22:43:10.737Z,13.20
2022-09-28T22:47:14.118Z,13.17
2022-09-28T22:51:18.130Z,13.14
2022-09-28T22:55:21.545Z,13.11
2022-09-28T22:59:26.790Z,13.10
2022-09-28T23:03:29.722Z,13.07
2022-09-28T23:07:33.351Z,13.06
2022-09-28T23:11:37.054Z,13.01
2022-09-28T23:15:41.786Z,13.00
2022-09-28T23:19:45.357Z,12.97
2022-09-28T23:23:53.401Z,12.92
2022-09-28T23:27:57.014Z,12.87
2022-09-28T23:32:02.177Z,12.83
2022-09-28T23:36:05.942Z,12.78
2022-09-28T23:40:10.012Z,12.72
2022-09-28T23:44:12.957Z,12.72
2022-09-28T23:48:17.967Z,12.69
2022-09-28T23:52:21.446Z,12.66
2022-09-28T23:56:24.471Z,12.65
